Time;durP1;ratioP1;P1;durP2;ratioP2;P2;SDS_P1;SDS_P2;PMS_P1;PMS_P2;Temp;Humidity;BMP_temperature;BMP_pressure;BME280_temperature;BME280_humidity;BME280_pressure;Samples;Min_cycle;Max_cycle;Signal;HPM_P1;HPM_P2
2022/09/18 00:00:43;;;;;;;8.50;1.25;;;12.80;73.40;;;;;;9184230;19;20014;-67
2022/09/18 00:03:47;;;;;;;13.68;1.85;;;12.80;73.40;;;;;;9184902;19;19999;-70
2022/09/18 00:06:52;;;;;;;7.60;1.55;;;12.80;73.50;;;;;;9185143;19;20011;-70
2022/09/18 00:09:56;;;;;;;6.30;1.92;;;12.80;73.60;;;;;;9182002;19;20078;-68
2022/09/18 00:13:00;;;;;;;6.82;2.03;;;12.80;73.70;;;;;;9183513;19;20044;-70
2022/09/18 00:16:05;;;;;;;5.55;1.08;;;12.80;73.60;;;;;;9184809;19;20019;-69
2022/09/18 00:19:09;;;;;;;8.85;1.60;;;12.80;73.70;;;;;;9183993;19;20839;-69
2022/09/18 00:22:15;;;;;;;9.38;1.27;;;12.80;73.80;;;;;;9176857;19;20022;-63
2022/09/18 00:25:19;;;;;;;6.90;1.35;;;12.80;73.90;;;;;;9177459;19;20077;-68
2022/09/18 00:28:22;;;;;;;5.35;0.95;;;12.80;73.90;;;;;;9183841;19;20010;-69
2022/09/18 00:31:28;;;;;;;9.38;2.00;;;12.80;73.90;;;;;;9184222;19;20014;-69
2022/09/18 00:34:34;;;;;;;9.45;1.60;;;12.80;73.90;;;;;;9179820;19;20017;-68
2022/09/18 00:37:41;;;;;;;11.07;1.27;;;12.80;73.90;;;;;;9181387;19;20011;-68
2022/09/18 00:40:44;;;;;;;10.93;1.70;;;12.80;74.00;;;;;;9182776;19;20074;-70
2022/09/18 00:43:48;;;;;;;14.25;2.10;;;12.80;74.00;;;;;;9183570;19;20041;-70
2022/09/18 00:46:52;;;;;;;10.23;1.63;;;12.70;74.00;;;;;;9183222;19;20014;-69
2022/09/18 00:50:01;;;;;;;8.23;1.65;;;12.70;74.10;;;;;;9183420;19;20014;-66
2022/09/18 00:53:07;;;;;;;9.80;1.85;;;12.70;74.10;;;;;;9183150;19;20077;-67
2022/09/18 00:56:15;;;;;;;10.25;2.10;;;12.70;74.10;;;;;;9182729;19;20022;-69
2022/09/18 00:59:24;;;;;;;11.13;1.45;;;12.70;74.20;;;;;;9182720;19;20019;-69
2022/09/18 01:02:28;;;;;;;7.35;1.67;;;12.70;74.30;;;;;;9178814;19;20007;-68
2022/09/18 01:05:43;;;;;;;8.00;1.27;;;12.70;74.30;;;;;;9180967;19;20015;-68
2022/09/18 01:09:01;;;;;;;7.30;1.60;;;12.70;74.40;;;;;;9181055;19;20014;-71
2022/09/18 01:12:17;;;;;;;5.38;1.02;;;12.60;74.40;;;;;;9180847;19;20019;-70
2022/09/18 01:15:29;;;;;;;8.15;1.35;;;12.70;74.50;;;;;;9181693;19;20010;-68
2022/09/18 01:18:41;;;;;;;5.93;1.17;;;12.70;74.50;;;;;;9182132;19;20010;-69
2022/09/18 01:21:50;;;;;;;14.60;2.08;;;12.60;74.50;;;;;;9181237;19;20011;-68
2022/09/18 01:25:18;;;;;;;4.50;1.27;;;12.70;74.50;;;;;;9180645;19;20409;-69
2022/09/18 01:28:29;;;;;;;7.72;1.10;;;12.60;74.70;;;;;;9177398;19;20361;-68
2022/09/18 01:31:39;;;;;;;9.10;1.60;;;12.60;74.50;;;;;;9171050;19;20039;-68
2022/09/18 01:34:48;;;;;;;7.88;1.60;;;12.60;74.60;;;;;;9167799;19;20030;-67
2022/09/18 01:37:56;;;;;;;15.00;1.52;;;12.70;74.70;;;;;;9172123;19;20015;-68
2022/09/18 01:41:06;;;;;;;4.72;1.65;;;12.70;74.70;;;;;;9172564;19;20041;-68
2022/09/18 01:44:16;;;;;;;6.03;1.02;;;12.70;74.70;;;;;;9171686;19;20019;-68
2022/09/18 01:47:22;;;;;;;9.75;1.83;;;12.70;74.80;;;;;;9176016;19;20022;-68
2022/09/18 01:50:28;;;;;;;8.05;1.52;;;12.70;74.70;;;;;;9174103;19;20621;-67
2022/09/18 01:53:38;;;;;;;7.72;1.23;;;12.70;74.80;;;;;;9168398;19;20017;-65
2022/09/18 01:56:46;;;;;;;4.05;1.02;;;12.70;74.80;;;;;;9169838;19;20365;-70
2022/09/18 01:59:57;;;;;;;5.40;0.90;;;12.70;74.90;;;;;;9169302;19;20070;-66
2022/09/18 02:03:06;;;;;;;7.40;1.00;;;12.70;74.90;;;;;;9167739;19;20015;-70
2022/09/18 02:06:14;;;;;;;6.15;1.80;;;12.70;74.90;;;;;;9171141;19;20041;-68
2022/09/18 02:09:18;;;;;;;11.20;1.58;;;12.70;75.00;;;;;;9172540;19;20043;-69
2022/09/18 02:12:25;;;;;;;9.18;1.73;;;12.70;75.00;;;;;;9171850;19;20769;-68
2022/09/18 02:15:39;;;;;;;8.63;1.20;;;12.70;75.00;;;;;;9168647;19;20518;-68
2022/09/18 02:18:54;;;;;;;9.25;1.40;;;12.70;75.10;;;;;;9174618;19;20048;-68
2022/09/18 02:22:00;;;;;;;7.25;1.25;;;12.70;75.00;;;;;;9169201;19;20015;-67
2022/09/18 02:25:07;;;;;;;5.65;0.82;;;12.70;75.10;;;;;;9168042;19;20026;-69
2022/09/18 02:28:14;;;;;;;2.70;0.60;;;12.70;75.10;;;;;;9172862;19;20018;-67
2022/09/18 02:31:20;;;;;;;3.75;0.90;;;12.70;75.10;;;;;;9170958;19;20011;-68
2022/09/18 02:34:24;;;;;;;11.60;2.50;;;12.70;75.10;;;;;;9166848;19;20033;-66
2022/09/18 02:37:38;;;;;;;3.83;1.67;;;12.70;75.10;;;;;;9171453;19;20064;-69
2022/09/18 02:40:52;;;;;;;4.88;0.90;;;12.70;75.30;;;;;;9176535;19;20015;-69
2022/09/18 02:44:03;;;;;;;3.63;1.48;;;12.70;75.20;;;;;;9177093;19;20044;-68
2022/09/18 02:47:25;;;;;;;4.18;0.88;;;12.70;75.30;;;;;;9177930;19;20015;-69
2022/09/18 02:50:33;;;;;;;4.45;1.13;;;12.70;75.30;;;;;;9175715;19;20519;-68
2022/09/18 02:53:43;;;;;;;3.75;0.90;;;12.70;75.20;;;;;;9176343;19;20059;-69
2022/09/18 02:56:51;;;;;;;8.05;1.83;;;12.70;75.30;;;;;;9177792;19;20011;-69
2022/09/18 02:59:56;;;;;;;7.20;1.30;;;12.70;75.30;;;;;;9177225;19;20453;-68
2022/09/18 03:03:03;;;;;;;7.82;1.27;;;12.70;75.40;;;;;;9173671;19;20468;-69
2022/09/18 03:06:20;;;;;;;5.32;1.20;;;12.70;75.40;;;;;;9176927;19;20101;-69
2022/09/18 03:09:24;;;;;;;3.13;0.65;;;12.70;75.40;;;;;;9174205;19;20015;-68
2022/09/18 03:12:28;;;;;;;4.70;1.30;;;12.70;75.40;;;;;;9177019;19;20022;-69
2022/09/18 03:15:32;;;;;;;11.55;1.67;;;12.70;75.40;;;;;;9178392;19;20019;-69
2022/09/18 03:18:37;;;;;;;9.32;1.40;;;12.70;75.50;;;;;;9176486;19;20014;-66
2022/09/18 03:21:41;;;;;;;7.50;1.30;;;12.70;75.50;;;;;;9175239;19;20010;-70
2022/09/18 03:24:47;;;;;;;3.53;1.10;;;12.70;75.50;;;;;;9175280;19;20025;-67
2022/09/18 03:27:55;;;;;;;3.17;0.77;;;12.70;75.50;;;;;;9184021;19;20034;-68
2022/09/18 03:31:06;;;;;;;10.10;1.13;;;12.80;75.70;;;;;;9184127;19;20102;-69
2022/09/18 03:34:12;;;;;;;9.48;1.17;;;12.70;75.60;;;;;;9183954;19;20510;-67
2022/09/18 03:37:16;;;;;;;10.48;1.73;;;12.80;75.70;;;;;;9179204;19;20011;-70
2022/09/18 03:40:22;;;;;;;7.15;1.45;;;12.80;75.70;;;;;;9186793;19;20011;-69
2022/09/18 03:43:26;;;;;;;6.50;1.33;;;12.80;75.80;;;;;;9181344;19;20015;-66
2022/09/18 03:46:30;;;;;;;4.63;1.45;;;12.80;75.80;;;;;;9181705;19;20014;-68
2022/09/18 03:49:38;;;;;;;4.25;0.93;;;12.80;75.90;;;;;;9183581;19;20022;-68
2022/09/18 03:52:42;;;;;;;14.70;1.50;;;12.80;75.90;;;;;;9185225;19;20532;-68
2022/09/18 03:56:04;;;;;;;6.13;1.15;;;12.80;75.90;;;;;;9184245;19;20018;-68
2022/09/18 03:59:26;;;;;;;3.55;1.10;;;12.80;75.90;;;;;;9185516;19;20018;-68
2022/09/18 04:02:42;;;;;;;11.60;2.25;;;12.80;75.90;;;;;;9181027;19;20014;-67
2022/09/18 04:06:07;;;;;;;6.45;1.10;;;12.80;76.00;;;;;;9184045;19;20018;-66
2022/09/18 04:09:45;;;;;;;4.15;0.95;;;12.80;76.00;;;;;;9180140;19;20094;-68
2022/09/18 04:12:49;;;;;;;9.27;0.93;;;12.80;76.00;;;;;;9183730;19;20129;-67
2022/09/18 04:16:01;;;;;;;8.57;1.73;;;12.80;76.00;;;;;;9183468;19;20018;-67
2022/09/18 04:19:05;;;;;;;5.20;1.02;;;12.80;76.10;;;;;;9185567;19;20018;-67
2022/09/18 04:22:11;;;;;;;7.30;1.30;;;12.80;76.10;;;;;;9181119;19;20475;-68
2022/09/18 04:25:15;;;;;;;7.57;1.40;;;12.80;76.10;;;;;;9182289;19;20078;-69
2022/09/18 04:28:21;;;;;;;5.57;1.13;;;12.80;76.20;;;;;;9182423;19;20022;-66
2022/09/18 04:31:25;;;;;;;7.95;1.38;;;12.80;76.20;;;;;;9182000;19;20044;-68
2022/09/18 04:34:30;;;;;;;4.43;1.50;;;12.80;76.30;;;;;;9177896;19;20017;-68
2022/09/18 04:37:36;;;;;;;10.35;1.23;;;12.80;76.40;;;;;;9181890;19;20018;-69
2022/09/18 04:40:39;;;;;;;5.22;1.10;;;12.80;76.50;;;;;;9181692;19;20487;-68
2022/09/18 04:43:43;;;;;;;11.90;1.77;;;12.80;76.40;;;;;;9177502;19;20361;-68
2022/09/18 04:46:48;;;;;;;3.53;0.98;;;12.80;76.50;;;;;;9181989;19;20014;-66
2022/09/18 04:49:52;;;;;;;;;;;12.80;76.50;;;;;;9183038;19;20034;-67
2022/09/18 04:52:58;;;;;;;12.70;2.43;;;12.80;76.50;;;;;;9179859;19;19923;-67
2022/09/18 04:56:03;;;;;;;5.28;1.10;;;12.80;76.30;;;;;;9181904;19;20019;-67
2022/09/18 04:59:11;;;;;;;5.65;1.02;;;12.80;76.40;;;;;;9181003;19;20014;-66
2022/09/18 05:02:19;;;;;;;6.32;1.40;;;12.80;76.50;;;;;;9180016;19;20109;-67
2022/09/18 05:05:23;;;;;;;8.63;1.20;;;12.80;77.10;;;;;;9181442;19;20011;-68
2022/09/18 05:08:31;;;;;;;8.85;1.27;;;12.80;76.60;;;;;;9179417;19;20015;-66
2022/09/18 05:11:35;;;;;;;3.53;0.88;;;12.80;76.70;;;;;;9180753;19;20015;-68
2022/09/18 05:14:39;;;;;;;6.85;1.02;;;12.80;76.70;;;;;;9182548;19;20014;-69
2022/09/18 05:17:44;;;;;;;8.05;1.42;;;12.80;76.80;;;;;;9180285;19;20026;-68
2022/09/18 05:20:48;;;;;;;6.60;1.35;;;12.80;76.80;;;;;;9180414;19;20066;-68
2022/09/18 05:23:53;;;;;;;5.50;1.13;;;12.80;76.80;;;;;;9178953;19;20185;-68
2022/09/18 05:26:57;;;;;;;3.88;1.08;;;12.80;76.90;;;;;;9181900;19;20047;-67
2022/09/18 05:30:01;;;;;;;3.35;1.10;;;12.80;76.90;;;;;;9182021;19;20014;-67
2022/09/18 05:33:23;;;;;;;6.75;1.08;;;12.80;76.90;;;;;;9179493;19;20017;-68
2022/09/18 05:36:27;;;;;;;;;;;12.80;76.90;;;;;;9177630;19;20023;-68
2022/09/18 05:39:33;;;;;;;10.23;2.00;;;12.80;76.90;;;;;;9176092;19;20312;-66
2022/09/18 05:42:38;;;;;;;4.93;1.33;;;12.80;76.70;;;;;;9176387;19;20486;-66
2022/09/18 05:45:42;;;;;;;6.15;1.52;;;12.80;76.90;;;;;;9180492;19;20046;-66
2022/09/18 05:48:56;;;;;;;8.10;1.73;;;12.80;77.00;;;;;;9177993;19;20026;-65
2022/09/18 05:52:00;;;;;;;11.02;2.25;;;12.80;77.10;;;;;;9179165;19;20019;-68
2022/09/18 05:55:08;;;;;;;6.47;1.92;;;12.80;77.10;;;;;;9177918;19;20082;-66
2022/09/18 05:58:18;;;;;;;6.75;1.88;;;12.80;77.20;;;;;;9177093;19;20010;-66
2022/09/18 06:01:23;;;;;;;7.32;1.77;;;12.80;77.20;;;;;;9176267;19;20014;-66
2022/09/18 06:04:49;;;;;;;9.65;2.13;;;12.80;77.30;;;;;;9176279;19;20025;-68
2022/09/18 06:07:54;;;;;;;8.50;1.48;;;12.80;77.30;;;;;;9176527;19;20069;-67
2022/09/18 06:11:05;;;;;;;15.68;2.60;;;12.80;77.40;;;;;;9178122;19;20046;-68
2022/09/18 06:14:09;;;;;;;5.85;1.77;;;12.80;77.50;;;;;;9179298;19;20017;-67
2022/09/18 06:17:12;;;;;;;;;;;12.80;77.50;;;;;;9177034;19;20018;-68
2022/09/18 06:20:17;;;;;;;5.90;1.55;;;12.80;77.40;;;;;;9177306;19;19918;-67
2022/09/18 06:23:21;;;;;;;8.07;1.58;;;12.80;77.30;;;;;;9175627;19;20086;-66
2022/09/18 06:26:37;;;;;;;9.05;2.63;;;12.80;77.40;;;;;;9176321;19;20011;-67
2022/09/18 06:29:42;;;;;;;14.38;2.25;;;12.80;77.50;;;;;;9176503;19;20023;-67
2022/09/18 06:32:50;;;;;;;8.80;1.77;;;12.80;77.50;;;;;;9173008;19;20022;-67
2022/09/18 06:35:54;;;;;;;7.68;1.40;;;12.80;77.60;;;;;;9168757;19;20354;-67
2022/09/18 06:39:06;;;;;;;4.68;1.45;;;12.80;77.60;;;;;;9175227;19;20350;-67
2022/09/18 06:42:12;;;;;;;9.73;2.17;;;12.90;77.70;;;;;;9175790;19;20085;-66
2022/09/18 06:45:36;;;;;;;7.60;1.77;;;12.90;77.80;;;;;;9175944;19;20033;-67
2022/09/18 06:48:41;;;;;;;8.23;2.35;;;12.90;77.70;;;;;;9174762;19;20026;-69
2022/09/18 06:51:47;;;;;;;3.13;1.38;;;12.90;77.80;;;;;;9174679;19;20010;-67
2022/09/18 06:54:52;;;;;;;6.60;1.55;;;12.90;77.90;;;;;;9176095;19;20117;-67
2022/09/18 06:58:08;;;;;;;6.15;1.27;;;12.90;77.90;;;;;;9174373;19;20007;-68
2022/09/18 07:01:12;;;;;;;3.75;1.35;;;12.90;78.00;;;;;;9178844;19;20498;-67
2022/09/18 07:04:21;;;;;;;5.50;1.50;;;12.90;78.00;;;;;;9182576;19;20025;-67
2022/09/18 07:07:27;;;;;;;10.35;2.25;;;12.90;78.00;;;;;;9182880;19;20015;-68
2022/09/18 07:10:32;;;;;;;12.65;4.15;;;13.00;78.10;;;;;;9183534;19;20022;-66
2022/09/18 07:13:38;;;;;;;7.60;1.27;;;13.00;78.10;;;;;;9183817;19;20018;-67
2022/09/18 07:16:42;;;;;;;8.52;1.40;;;13.00;78.20;;;;;;9182568;19;20010;-66
2022/09/18 07:19:48;;;;;;;5.85;1.15;;;13.00;78.20;;;;;;9181665;19;20037;-67
2022/09/18 07:22:54;;;;;;;11.38;2.15;;;13.00;78.20;;;;;;9174158;19;20094;-64
2022/09/18 07:26:05;;;;;;;6.03;1.30;;;13.10;78.30;;;;;;9176542;19;20029;-64
2022/09/18 07:29:12;;;;;;;2.08;1.10;;;13.10;78.40;;;;;;9175946;19;20017;-65
2022/09/18 07:32:16;;;;;;;8.02;0.93;;;13.10;78.40;;;;;;9162239;19;20015;-66
2022/09/18 07:35:21;;;;;;;6.78;1.27;;;13.10;78.40;;;;;;9163936;19;20021;-66
2022/09/18 07:38:26;;;;;;;11.75;1.50;;;13.20;78.50;;;;;;9164215;19;20014;-63
2022/09/18 07:41:33;;;;;;;3.38;1.30;;;13.20;78.60;;;;;;9177556;19;20390;-68
2022/09/18 07:44:39;;;;;;;7.40;1.27;;;13.20;78.60;;;;;;9172465;19;20390;-64
2022/09/18 07:47:42;;;;;;;7.18;1.40;;;13.20;79.20;;;;;;9166209;19;20052;-68
2022/09/18 07:50:47;;;;;;;9.05;1.33;;;13.20;78.60;;;;;;9175241;19;20546;-66
2022/09/18 07:53:52;;;;;;;8.73;1.20;;;13.20;78.60;;;;;;9170344;19;20007;-65
2022/09/18 07:57:03;;;;;;;10.57;1.38;;;13.30;78.70;;;;;;9174203;19;20026;-68
2022/09/18 08:00:19;;;;;;;9.48;1.20;;;13.30;78.70;;;;;;9179947;19;20022;-68
2022/09/18 08:03:26;;;;;;;7.03;1.80;;;13.30;78.70;;;;;;9181175;19;20356;-68
2022/09/18 08:07:02;;;;;;;7.85;1.30;;;13.30;78.70;;;;;;9181960;19;20774;-67
2022/09/18 08:10:25;;;;;;;8.65;1.70;;;13.30;78.70;;;;;;9181167;19;20349;-67
2022/09/18 08:13:44;;;;;;;13.15;1.60;;;13.30;78.70;;;;;;9174147;19;20055;-65
2022/09/18 08:17:08;;;;;;;3.45;1.40;;;13.40;78.80;;;;;;9171618;19;20019;-68
2022/09/18 08:20:29;;;;;;;4.40;1.38;;;13.40;78.80;;;;;;9173184;19;20400;-68
2022/09/18 08:23:43;;;;;;;;;;;13.40;78.80;;;;;;9163380;19;20590;-66
2022/09/18 08:26:47;;;;;;;4.72;1.13;;;13.40;78.70;;;;;;9169810;19;20013;-67
2022/09/18 08:29:51;;;;;;;4.60;1.38;;;13.40;78.60;;;;;;9174073;19;20487;-67
2022/09/18 08:33:00;;;;;;;4.82;1.20;;;13.40;78.70;;;;;;9175117;19;20018;-67
2022/09/18 08:36:04;;;;;;;3.53;0.98;;;13.40;78.80;;;;;;9170359;19;20027;-66
2022/09/18 08:39:11;;;;;;;7.43;1.48;;;13.40;78.80;;;;;;9172622;19;20030;-66
2022/09/18 08:42:40;;;;;;;4.93;1.67;;;13.50;79.00;;;;;;9170454;19;20014;-66
2022/09/18 08:45:57;;;;;;;10.38;3.00;;;13.50;79.00;;;;;;9170154;19;20033;-65
2022/09/18 08:49:12;;;;;;;5.35;1.35;;;13.50;79.10;;;;;;9174934;19;20461;-65
2022/09/18 08:52:19;;;;;;;9.65;2.05;;;13.50;79.10;;;;;;9176410;19;20388;-66
2022/09/18 08:55:34;;;;;;;4.53;1.10;;;13.50;79.00;;;;;;9174666;19;20100;-65
2022/09/18 08:58:59;;;;;;;5.47;0.95;;;13.50;79.00;;;;;;9177031;19;20031;-63
2022/09/18 09:02:20;;;;;;;4.60;1.08;;;13.50;79.00;;;;;;9175069;19;20042;-66
2022/09/18 09:05:39;;;;;;;8.50;2.08;;;13.50;79.20;;;;;;9175182;19;20014;-67
2022/09/18 09:09:02;;;;;;;9.15;1.05;;;13.60;79.20;;;;;;9172867;19;20011;-68
2022/09/18 09:12:17;;;;;;;7.75;1.58;;;13.60;79.20;;;;;;9174001;19;20074;-66
2022/09/18 09:15:34;;;;;;;4.90;1.15;;;13.60;79.20;;;;;;9174833;19;20051;-67
2022/09/18 09:18:47;;;;;;;4.88;1.00;;;13.60;79.20;;;;;;9175919;19;20014;-68
2022/09/18 09:22:00;;;;;;;3.90;0.77;;;13.60;79.20;;;;;;9173515;19;20063;-66
2022/09/18 09:25:20;;;;;;;4.75;1.08;;;13.60;79.30;;;;;;9173436;19;20349;-67
2022/09/18 09:28:52;;;;;;;9.50;1.63;;;13.60;79.30;;;;;;9175343;19;20014;-67
2022/09/18 09:32:24;;;;;;;2.38;1.02;;;13.60;79.30;;;;;;9171522;19;20652;-67
2022/09/18 09:35:49;;;;;;;4.10;1.05;;;13.60;79.30;;;;;;9168803;19;20088;-68
2022/09/18 09:39:01;;;;;;;4.45;1.33;;;13.60;79.20;;;;;;9171889;19;20475;-67
2022/09/18 09:42:11;;;;;;;4.88;0.98;;;13.60;79.30;;;;;;9173235;19;20014;-67
2022/09/18 09:45:21;;;;;;;4.72;1.17;;;13.60;79.90;;;;;;9173038;19;20018;-66
2022/09/18 09:48:30;;;;;;;4.53;0.60;;;13.60;79.30;;;;;;9173477;19;20038;-67
2022/09/18 09:51:41;;;;;;;3.28;0.88;;;13.60;79.20;;;;;;9172879;19;20030;-67
2022/09/18 09:54:47;;;;;;;4.65;0.90;;;13.60;79.30;;;;;;9175461;19;20492;-66
2022/09/18 09:58:03;;;;;;;3.45;0.90;;;13.60;79.30;;;;;;9172475;19;20494;-66
2022/09/18 10:01:14;;;;;;;2.67;1.20;;;13.60;79.30;;;;;;9172491;19;20053;-66
2022/09/18 10:04:26;;;;;;;2.95;0.77;;;13.60;79.40;;;;;;9168869;19;20021;-68
2022/09/18 10:07:38;;;;;;;5.32;0.80;;;13.60;79.30;;;;;;9172377;19;20014;-65
2022/09/18 10:10:49;;;;;;;1.42;0.70;;;13.60;79.30;;;;;;9169529;19;20015;-65
2022/09/18 10:13:56;;;;;;;8.52;1.25;;;13.60;79.30;;;;;;9168590;19;20679;-66
2022/09/18 10:17:02;;;;;;;4.03;1.02;;;13.60;79.30;;;;;;9170310;19;20026;-65
2022/09/18 10:20:08;;;;;;;3.97;1.05;;;13.60;79.30;;;;;;9170077;19;20018;-66
2022/09/18 10:23:16;;;;;;;5.07;1.67;;;13.60;79.30;;;;;;9170094;19;20483;-66
2022/09/18 10:26:27;;;;;;;3.85;1.08;;;13.60;79.40;;;;;;9172143;19;20366;-66
2022/09/18 10:29:31;;;;;;;2.63;0.90;;;13.60;79.50;;;;;;9170588;19;20037;-65
2022/09/18 10:32:42;;;;;;;3.50;1.30;;;13.50;79.40;;;;;;9175992;19;20010;-68
2022/09/18 10:36:10;;;;;;;5.60;1.08;;;13.60;79.50;;;;;;9168601;19;20356;-67
2022/09/18 10:39:19;;;;;;;4.00;1.23;;;13.50;79.50;;;;;;9176338;19;20018;-66
2022/09/18 10:42:29;;;;;;;1.67;0.52;;;13.50;79.50;;;;;;9173872;19;20040;-67
2022/09/18 10:45:51;;;;;;;3.08;0.70;;;13.50;79.50;;;;;;9174376;19;20098;-66
2022/09/18 10:49:18;;;;;;;6.97;2.10;;;13.50;79.50;;;;;;9177715;19;20003;-67
2022/09/18 10:52:35;;;;;;;3.10;1.02;;;13.50;79.60;;;;;;9177554;19;20030;-67
2022/09/18 10:55:53;;;;;;;7.90;0.88;;;13.50;79.70;;;;;;9174933;19;20015;-67
2022/09/18 10:59:29;;;;;;;4.80;0.85;;;13.50;79.60;;;;;;9175448;19;20014;-66
2022/09/18 11:02:40;;;;;;;5.32;1.13;;;13.50;79.80;;;;;;9174559;19;20478;-66
2022/09/18 11:05:51;;;;;;;3.85;1.10;;;13.50;79.70;;;;;;9173909;19;20011;-62
2022/09/18 11:08:57;;;;;;;1.90;0.35;;;13.50;79.80;;;;;;9162451;19;20054;-64
2022/09/18 11:12:01;;;;;;;3.85;0.80;;;13.50;79.80;;;;;;9162835;19;20014;-68
2022/09/18 11:15:17;;;;;;;5.45;0.98;;;13.50;79.80;;;;;;9157365;19;20014;-65
2022/09/18 11:18:22;;;;;;;2.67;0.93;;;13.50;79.90;;;;;;9159862;19;20032;-68
2022/09/18 11:21:27;;;;;;;4.30;1.00;;;13.50;79.90;;;;;;9158271;19;20026;-68
2022/09/18 11:24:33;;;;;;;6.57;1.77;;;13.50;79.90;;;;;;9155319;19;20015;-67
2022/09/18 11:27:49;;;;;;;8.77;1.35;;;13.50;79.90;;;;;;9167553;19;20014;-65
2022/09/18 11:31:02;;;;;;;4.38;1.35;;;13.50;80.00;;;;;;9169357;19;20479;-64
2022/09/18 11:34:21;;;;;;;3.28;1.15;;;13.50;80.10;;;;;;9160392;19;20010;-66
2022/09/18 11:37:32;;;;;;;5.18;1.10;;;13.50;80.10;;;;;;9171869;19;20494;-67
2022/09/18 11:40:47;;;;;;;2.47;0.73;;;13.50;80.10;;;;;;9168045;19;20026;-65
2022/09/18 11:44:02;;;;;;;5.18;1.50;;;13.50;80.10;;;;;;9171627;19;20038;-68
2022/09/18 11:47:32;;;;;;;4.60;1.38;;;13.50;80.20;;;;;;9176927;19;20110;-64
2022/09/18 11:50:39;;;;;;;7.88;0.98;;;13.50;80.30;;;;;;9182930;19;20034;-67
2022/09/18 11:53:54;;;;;;;4.55;1.02;;;13.50;80.10;;;;;;9183357;19;20022;-66
2022/09/18 11:57:01;;;;;;;2.53;0.63;;;13.50;80.10;;;;;;9184764;19;20018;-68
2022/09/18 12:00:14;;;;;;;5.43;1.00;;;13.60;80.20;;;;;;9183222;19;20389;-67
2022/09/18 12:03:25;;;;;;;4.57;0.75;;;13.60;80.30;;;;;;9183082;19;20346;-67
2022/09/18 12:06:37;;;;;;;2.60;0.80;;;13.60;80.30;;;;;;9182534;19;20010;-67
2022/09/18 12:09:49;;;;;;;6.88;0.85;;;13.60;80.30;;;;;;9180904;19;20041;-67
2022/09/18 12:13:02;;;;;;;9.30;1.35;;;13.60;80.30;;;;;;9180294;19;20028;-67
2022/09/18 12:16:13;;;;;;;5.95;1.38;;;13.60;80.30;;;;;;9182252;19;20039;-66
2022/09/18 12:19:24;;;;;;;8.68;2.38;;;13.60;80.40;;;;;;9181779;19;20018;-67
2022/09/18 12:22:33;;;;;;;3.65;0.90;;;13.60;80.40;;;;;;9184204;19;20018;-66
2022/09/18 12:25:46;;;;;;;1.95;0.85;;;13.70;80.50;;;;;;9181951;19;20094;-68
2022/09/18 12:29:26;;;;;;;5.53;1.33;;;13.70;80.50;;;;;;9182759;19;20014;-68
2022/09/18 12:32:43;;;;;;;6.13;1.10;;;13.70;80.50;;;;;;9184206;19;20046;-68
2022/09/18 12:36:03;;;;;;;8.57;0.98;;;13.70;80.50;;;;;;9179266;19;20015;-68
2022/09/18 12:39:20;;;;;;;5.53;1.13;;;13.70;80.50;;;;;;9183967;19;20378;-68
2022/09/18 12:42:38;;;;;;;7.07;1.33;;;13.70;80.50;;;;;;9183160;19;20475;-67
2022/09/18 12:46:03;;;;;;;9.00;1.20;;;13.70;80.50;;;;;;9184027;19;20337;-68
2022/09/18 12:49:32;;;;;;;7.13;1.27;;;13.80;80.60;;;;;;9183367;19;20043;-67
2022/09/18 12:52:46;;;;;;;4.47;1.23;;;13.80;80.60;;;;;;9183230;19;20022;-68
2022/09/18 12:56:27;;;;;;;5.43;1.67;;;13.80;81.00;;;;;;9182937;19;20017;-67
2022/09/18 12:59:53;;;;;;;8.68;2.83;;;13.90;80.60;;;;;;9181877;19;20384;-68
2022/09/18 13:03:03;;;;;;;7.65;1.42;;;13.90;80.50;;;;;;9181458;19;20489;-66
2022/09/18 13:06:12;;;;;;;8.07;1.33;;;13.90;80.50;;;;;;9182279;19;20041;-67
2022/09/18 13:09:22;;;;;;;5.82;1.13;;;14.00;80.60;;;;;;9179616;19;20026;-67
2022/09/18 13:12:36;;;;;;;7.32;1.33;;;14.00;80.50;;;;;;9182557;19;20483;-66
2022/09/18 13:15:44;;;;;;;8.20;1.33;;;14.00;80.50;;;;;;9181959;19;20051;-67
2022/09/18 13:18:55;;;;;;;8.68;1.40;;;14.10;80.60;;;;;;9178717;19;20014;-67
2022/09/18 13:22:03;;;;;;;9.23;1.42;;;14.10;80.60;;;;;;9181305;19;20010;-68
2022/09/18 13:25:24;;;;;;;4.65;1.23;;;14.10;80.50;;;;;;9176621;19;20018;-68
2022/09/18 13:28:29;;;;;;;6.60;1.70;;;14.20;80.60;;;;;;9181793;19;20013;-69
2022/09/18 13:31:34;;;;;;;4.93;1.08;;;14.20;80.50;;;;;;9181567;19;20340;-69
2022/09/18 13:34:39;;;;;;;4.97;1.05;;;14.20;80.50;;;;;;9177261;19;20019;-68
2022/09/18 13:37:44;;;;;;;4.40;0.90;;;14.20;80.50;;;;;;9181302;19;20027;-68
2022/09/18 13:40:58;;;;;;;7.13;1.10;;;14.30;80.50;;;;;;9181123;19;20011;-67
2022/09/18 13:44:03;;;;;;;5.95;1.73;;;14.20;80.50;;;;;;9178326;19;20428;-66
2022/09/18 13:47:12;;;;;;;7.47;1.40;;;14.20;80.40;;;;;;9181100;19;20019;-68
2022/09/18 13:50:19;;;;;;;6.40;0.93;;;14.20;80.50;;;;;;9181103;19;20089;-67
2022/09/18 13:53:39;;;;;;;8.52;0.95;;;14.20;80.40;;;;;;9180945;19;20015;-68
2022/09/18 13:57:13;;;;;;;8.80;1.50;;;14.20;80.50;;;;;;9181823;19;20080;-68
2022/09/18 14:00:42;;;;;;;6.80;1.20;;;14.20;80.40;;;;;;9175344;19;20047;-67
2022/09/18 14:03:45;;;;;;;8.77;1.27;;;14.20;80.40;;;;;;9172431;19;20112;-66
2022/09/18 14:06:49;;;;;;;8.77;1.55;;;14.20;80.30;;;;;;9173959;19;20111;-66
2022/09/18 14:09:55;;;;;;;9.10;1.02;;;14.20;80.40;;;;;;9164705;19;20094;-67
2022/09/18 14:13:31;;;;;;;6.15;1.60;;;14.20;80.40;;;;;;9171832;19;20054;-66
2022/09/18 14:16:42;;;;;;;6.60;1.20;;;14.20;80.60;;;;;;9173681;19;20015;-66
2022/09/18 14:19:49;;;;;;;6.45;1.15;;;14.20;80.40;;;;;;9171105;19;20086;-67
2022/09/18 14:22:53;;;;;;;7.68;1.58;;;14.20;80.50;;;;;;9170901;19;20374;-64
2022/09/18 14:25:56;;;;;;;;;;;14.20;80.50;;;;;;9172457;19;20018;-66
2022/09/18 14:29:04;;;;;;;4.10;0.88;;;14.10;80.40;;;;;;9171070;19;19927;-68
2022/09/18 14:32:20;;;;;;;7.93;1.92;;;14.10;80.20;;;;;;9169195;19;20026;-67
2022/09/18 14:35:35;;;;;;;4.80;1.38;;;14.10;80.40;;;;;;9168104;19;20018;-69
2022/09/18 14:38:40;;;;;;;5.18;1.02;;;14.00;80.30;;;;;;9172175;19;20617;-68
2022/09/18 14:41:43;;;;;;;3.92;1.00;;;14.00;80.20;;;;;;9172931;19;20512;-65
2022/09/18 14:44:51;;;;;;;10.65;1.35;;;14.00;80.30;;;;;;9167764;19;20670;-68
2022/09/18 14:47:58;;;;;;;3.88;1.17;;;13.90;80.20;;;;;;9169576;19;20916;-65
2022/09/18 14:51:04;;;;;;;3.10;1.30;;;13.90;80.30;;;;;;9163310;19;20018;-68
2022/09/18 14:54:20;;;;;;;2.90;1.00;;;13.90;80.30;;;;;;9170979;19;20078;-67
2022/09/18 14:57:33;;;;;;;5.20;0.85;;;13.80;80.30;;;;;;9170256;19;20574;-68
2022/09/18 15:00:39;;;;;;;3.42;1.10;;;13.80;80.20;;;;;;9169133;19;20038;-69
2022/09/18 15:03:47;;;;;;;7.03;1.10;;;13.70;80.10;;;;;;9168547;19;20030;-67
2022/09/18 15:06:53;;;;;;;2.95;1.52;;;13.70;80.00;;;;;;9171283;19;20022;-67
2022/09/18 15:10:01;;;;;;;6.07;1.02;;;13.60;80.00;;;;;;9167580;19;20059;-67
2022/09/18 15:13:08;;;;;;;2.58;0.63;;;13.60;79.90;;;;;;9169539;19;20086;-67
2022/09/18 15:16:19;;;;;;;5.72;0.93;;;13.60;79.90;;;;;;9171194;19;20022;-67
2022/09/18 15:19:26;;;;;;;6.47;1.17;;;13.50;79.90;;;;;;9170228;19;20511;-67
2022/09/18 15:22:30;;;;;;;4.50;0.90;;;13.50;79.90;;;;;;9172975;19;20022;-67
2022/09/18 15:25:38;;;;;;;4.53;0.90;;;13.40;79.90;;;;;;9178219;19;20014;-67
2022/09/18 15:28:45;;;;;;;5.25;0.80;;;13.40;79.90;;;;;;9178378;19;20134;-64
2022/09/18 15:31:50;;;;;;;3.95;0.77;;;13.40;79.90;;;;;;9179041;19;20049;-68
2022/09/18 15:34:56;;;;;;;5.75;1.25;;;13.40;79.90;;;;;;9174067;19;20102;-67
2022/09/18 15:38:02;;;;;;;3.28;1.02;;;13.30;79.80;;;;;;9178012;19;20014;-68
2022/09/18 15:41:24;;;;;;;7.65;1.13;;;13.30;79.80;;;;;;9177333;19;20022;-66
2022/09/18 15:45:12;;;;;;;6.57;0.95;;;13.30;79.80;;;;;;9174962;19;20010;-67
2022/09/18 15:48:35;;;;;;;3.97;1.00;;;13.20;79.70;;;;;;9176961;19;20086;-67
2022/09/18 15:51:41;;;;;;;3.88;1.00;;;13.20;79.70;;;;;;9178171;19;20018;-68
2022/09/18 15:55:03;;;;;;;4.03;1.17;;;13.20;79.70;;;;;;9177571;19;20117;-66
2022/09/18 15:58:18;;;;;;;5.22;1.20;;;13.10;79.70;;;;;;9176197;19;20098;-68
2022/09/18 16:01:26;;;;;;;4.10;1.15;;;13.10;79.70;;;;;;9175565;19;20018;-69
2022/09/18 16:04:32;;;;;;;4.40;0.65;;;13.10;79.70;;;;;;9175118;19;20013;-68
2022/09/18 16:07:38;;;;;;;5.85;1.00;;;13.00;80.30;;;;;;9178158;19;20017;-69
2022/09/18 16:10:47;;;;;;;6.72;1.10;;;13.00;79.70;;;;;;9177136;19;20017;-69
2022/09/18 16:13:51;;;;;;;5.22;1.25;;;13.00;79.70;;;;;;9176288;19;20014;-67
2022/09/18 16:16:55;;;;;;;6.00;1.20;;;13.00;79.70;;;;;;9177814;19;20022;-68
2022/09/18 16:20:00;;;;;;;4.00;1.40;;;13.00;79.70;;;;;;9176964;19;20094;-67
2022/09/18 16:23:23;;;;;;;4.07;1.35;;;12.90;79.80;;;;;;9176832;19;20022;-68
2022/09/18 16:26:30;;;;;;;7.95;1.20;;;12.90;79.80;;;;;;9177136;19;20007;-69
2022/09/18 16:29:35;;;;;;;8.60;1.25;;;12.90;79.80;;;;;;9176940;19;20082;-67
2022/09/18 16:32:38;;;;;;;2.55;1.05;;;12.90;79.90;;;;;;9175562;19;20650;-68